createdAt,value
2018-09-19T00:01:44.538Z,24.30
2018-09-19T00:04:13.274Z,24.70
2018-09-19T00:06:41.953Z,25.00
2018-09-19T00:09:11.941Z,25.00
2018-09-19T00:11:40.780Z,25.10
2018-09-19T00:14:10.185Z,25.20
2018-09-19T00:16:38.892Z,25.20
2018-09-19T00:19:07.758Z,25.20
2018-09-19T00:21:36.455Z,25.10
2018-09-19T00:24:05.208Z,25.00
2018-09-19T00:26:33.909Z,25.00
2018-09-19T00:29:02.746Z,25.00
2018-09-19T00:31:31.373Z,25.10
2018-09-19T00:34:00.115Z,25.00
2018-09-19T00:36:28.821Z,25.00
2018-09-19T00:38:57.513Z,25.00
2018-09-19T00:41:26.235Z,25.00
2018-09-19T00:43:54.946Z,25.00
2018-09-19T00:46:23.661Z,25.00
2018-09-19T00:48:52.393Z,25.00
2018-09-19T00:51:21.127Z,25.00
2018-09-19T00:53:49.818Z,24.90
2018-09-19T00:56:18.523Z,24.90
2018-09-19T00:58:47.237Z,23.60
2018-09-19T01:01:15.997Z,24.20
2018-09-19T01:03:44.689Z,24.50
2018-09-19T01:06:13.415Z,24.60
2018-09-19T01:08:42.091Z,24.80
2018-09-19T01:11:10.823Z,24.80
2018-09-19T01:13:39.514Z,24.80
2018-09-19T01:16:08.227Z,24.80
2018-09-19T01:18:37.062Z,24.70
2018-09-19T01:21:06.002Z,24.60
2018-09-19T01:23:34.757Z,24.60
2018-09-19T01:26:03.498Z,24.70
2018-09-19T01:28:32.201Z,24.70
2018-09-19T01:31:00.965Z,24.60
2018-09-19T01:33:29.669Z,24.60
2018-09-19T01:35:58.469Z,24.60
2018-09-19T01:38:27.178Z,24.60
2018-09-19T01:40:55.913Z,24.50
2018-09-19T01:43:24.603Z,24.60
2018-09-19T01:45:53.292Z,24.60
2018-09-19T01:48:22.006Z,24.60
2018-09-19T01:50:50.716Z,24.60
2018-09-19T01:53:19.430Z,24.50
2018-09-19T01:55:48.118Z,24.50
2018-09-19T01:58:16.813Z,24.50
2018-09-19T02:00:45.530Z,24.50
2018-09-19T02:03:14.248Z,24.50
2018-09-19T02:05:42.921Z,24.50
2018-09-19T02:08:11.639Z,24.50
2018-09-19T02:10:40.397Z,24.50
2018-09-19T02:13:09.145Z,24.50
2018-09-19T02:15:37.847Z,23.80
2018-09-19T02:18:06.607Z,24.20
2018-09-19T02:20:35.316Z,24.30
2018-09-19T02:23:04.076Z,24.40
2018-09-19T02:25:32.810Z,24.30
2018-09-19T02:28:01.631Z,24.30
2018-09-19T02:30:30.342Z,24.30
2018-09-19T02:32:59.083Z,24.30
2018-09-19T02:35:27.790Z,24.10
2018-09-19T02:37:56.522Z,23.90
2018-09-19T02:40:25.229Z,24.10
2018-09-19T02:42:53.974Z,24.10
2018-09-19T02:45:22.674Z,24.20
2018-09-19T02:47:51.395Z,24.20
2018-09-19T02:50:20.083Z,24.20
2018-09-19T02:52:54.673Z,24.20
2018-09-19T02:55:24.330Z,24.20
2018-09-19T02:57:53.042Z,24.00
2018-09-19T03:00:21.897Z,23.80
2018-09-19T03:02:50.922Z,24.00
2018-09-19T03:05:19.789Z,23.90
2018-09-19T03:07:48.530Z,24.00
2018-09-19T03:10:17.233Z,24.00
2018-09-19T03:12:45.957Z,23.70
2018-09-19T03:15:14.694Z,23.50
2018-09-19T03:17:43.575Z,23.20
2018-09-19T03:20:12.160Z,23.30
2018-09-19T03:22:40.858Z,23.60
2018-09-19T03:25:09.590Z,23.60
2018-09-19T03:27:38.291Z,23.80
2018-09-19T03:30:07.132Z,23.90
2018-09-19T03:32:35.877Z,23.90
2018-09-19T03:35:04.661Z,24.00
2018-09-19T03:37:33.377Z,23.80
2018-09-19T03:40:02.130Z,23.80
2018-09-19T03:42:30.853Z,23.80
2018-09-19T03:44:59.599Z,23.10
2018-09-19T03:47:28.330Z,23.30
2018-09-19T03:49:57.081Z,23.60
2018-09-19T03:52:25.765Z,23.70
2018-09-19T03:54:54.475Z,23.40
2018-09-19T03:57:23.153Z,23.10
2018-09-19T03:59:51.854Z,23.10
2018-09-19T04:02:20.590Z,23.50
2018-09-19T04:04:49.302Z,23.70
2018-09-19T04:07:17.996Z,23.80
2018-09-19T04:09:46.721Z,23.80
2018-09-19T04:12:15.405Z,23.80
2018-09-19T04:14:44.119Z,23.80
2018-09-19T04:17:12.811Z,23.80
2018-09-19T04:19:41.554Z,23.80
2018-09-19T04:22:10.241Z,23.70
2018-09-19T04:24:38.929Z,23.70
2018-09-19T04:27:07.656Z,23.70
2018-09-19T04:29:36.364Z,23.60
2018-09-19T04:32:05.195Z,23.60
2018-09-19T04:34:33.934Z,23.40
2018-09-19T04:37:02.706Z,22.80
2018-09-19T04:39:31.406Z,22.80
2018-09-19T04:42:00.150Z,23.00
2018-09-19T04:44:28.858Z,23.10
2018-09-19T04:46:57.574Z,22.30
2018-09-19T04:49:26.282Z,22.40
2018-09-19T04:51:54.989Z,22.30
2018-09-19T04:54:23.699Z,22.90
2018-09-19T04:56:52.446Z,22.90
2018-09-19T04:59:21.139Z,22.70
2018-09-19T05:01:49.881Z,23.20
2018-09-19T05:04:18.578Z,23.30
2018-09-19T05:06:47.327Z,23.30
2018-09-19T05:09:16.033Z,23.50
2018-09-19T05:11:44.779Z,23.50
2018-09-19T05:14:13.492Z,23.40
2018-09-19T05:16:42.241Z,23.10
2018-09-19T05:19:10.938Z,23.30
2018-09-19T05:21:39.629Z,23.30
2018-09-19T05:24:08.353Z,22.80
2018-09-19T05:26:37.025Z,23.10
2018-09-19T05:29:05.772Z,23.30
2018-09-19T05:31:34.483Z,23.10
2018-09-19T05:34:03.221Z,23.30
2018-09-19T05:36:31.921Z,23.00
2018-09-19T05:39:00.639Z,22.60
2018-09-19T05:41:29.318Z,22.00
2018-09-19T05:43:58.074Z,22.10
2018-09-19T05:46:26.787Z,21.40
2018-09-19T05:48:55.521Z,21.90
2018-09-19T05:51:24.243Z,22.10
2018-09-19T05:53:52.945Z,21.60
2018-09-19T05:56:21.618Z,21.50
2018-09-19T05:58:50.340Z,21.30
2018-09-19T06:01:19.057Z,20.90
2018-09-19T06:03:47.787Z,21.30
2018-09-19T06:06:16.465Z,21.20
2018-09-19T06:08:45.205Z,21.00
2018-09-19T06:11:13.879Z,21.00
2018-09-19T06:13:42.977Z,21.10
2018-09-19T06:16:11.699Z,22.50
2018-09-19T06:18:40.445Z,22.20
2018-09-19T06:21:09.150Z,21.60
2018-09-19T06:23:37.834Z,21.90
2018-09-19T06:26:06.647Z,21.60
2018-09-19T06:28:35.403Z,22.10
2018-09-19T06:31:04.183Z,21.90
2018-09-19T06:33:32.936Z,22.20
2018-09-19T06:36:01.697Z,21.40
2018-09-19T06:38:30.420Z,21.60
2018-09-19T06:40:59.279Z,21.90
2018-09-19T06:43:27.877Z,21.20
2018-09-19T06:45:56.614Z,21.20
2018-09-19T06:48:25.313Z,20.80
2018-09-19T06:50:54.021Z,20.70
2018-09-19T06:53:22.723Z,21.60
2018-09-19T06:55:51.463Z,21.60
2018-09-19T06:58:20.165Z,21.80
2018-09-19T07:00:48.926Z,21.90
2018-09-19T07:03:17.618Z,22.40
2018-09-19T07:05:46.410Z,22.30
2018-09-19T07:08:15.101Z,22.40
2018-09-19T07:10:43.828Z,22.30
2018-09-19T07:13:12.537Z,22.90
2018-09-19T07:15:41.260Z,22.70
2018-09-19T07:18:09.983Z,23.00
2018-09-19T07:20:38.693Z,23.10
2018-09-19T07:23:07.497Z,22.90
2018-09-19T07:25:36.208Z,23.00
2018-09-19T07:28:04.958Z,23.90
2018-09-19T07:30:33.673Z,22.70
2018-09-19T07:33:02.386Z,22.60
2018-09-19T07:35:31.099Z,23.60
2018-09-19T07:37:59.900Z,23.80
2018-09-19T07:40:28.690Z,23.10
2018-09-19T07:42:57.433Z,22.90
2018-09-19T07:45:26.151Z,22.80
2018-09-19T07:47:54.903Z,23.00
2018-09-19T07:50:23.635Z,23.30
2018-09-19T07:52:52.382Z,22.90
2018-09-19T07:55:21.116Z,23.20
2018-09-19T07:57:49.858Z,23.60
2018-09-19T08:00:18.625Z,23.70
2018-09-19T08:02:47.375Z,24.20
2018-09-19T08:05:16.081Z,23.80
2018-09-19T08:07:44.813Z,23.70
2018-09-19T08:10:13.537Z,24.50
2018-09-19T08:12:42.328Z,23.90
2018-09-19T08:15:11.094Z,23.80
2018-09-19T08:17:39.791Z,24.00
2018-09-19T08:20:08.601Z,24.20
2018-09-19T08:22:37.381Z,24.70
2018-09-19T08:25:06.081Z,24.40
2018-09-19T08:27:34.820Z,24.60
2018-09-19T08:30:03.674Z,23.60
2018-09-19T08:32:32.395Z,23.20
2018-09-19T08:35:01.182Z,23.40
2018-09-19T08:37:29.949Z,24.20
2018-09-19T08:39:58.733Z,24.60
2018-09-19T08:42:27.480Z,25.00
2018-09-19T08:44:56.309Z,25.00
2018-09-19T08:47:25.016Z,24.80
2018-09-19T08:49:53.926Z,25.60
2018-09-19T08:52:22.626Z,25.40
2018-09-19T08:54:51.345Z,25.70
2018-09-19T08:57:20.040Z,25.30
2018-09-19T08:59:48.745Z,24.80
2018-09-19T09:02:17.468Z,25.70
2018-09-19T09:04:46.193Z,26.30
2018-09-19T09:07:14.871Z,26.20
2018-09-19T09:09:43.589Z,25.90
2018-09-19T09:12:12.338Z,25.50
2018-09-19T09:14:41.042Z,25.40
2018-09-19T09:17:09.716Z,25.80
2018-09-19T09:19:38.476Z,25.70
2018-09-19T09:22:07.197Z,25.90
2018-09-19T09:24:35.933Z,25.70
2018-09-19T09:27:04.657Z,26.10
2018-09-19T09:29:33.353Z,26.00
2018-09-19T09:32:02.097Z,26.10
2018-09-19T09:34:30.795Z,25.70
2018-09-19T09:36:59.509Z,26.30
2018-09-19T09:39:28.217Z,26.90
2018-09-19T09:41:56.945Z,26.70
2018-09-19T09:44:25.663Z,26.20
2018-09-19T09:46:54.403Z,26.50
2018-09-19T09:49:23.139Z,26.60
2018-09-19T09:51:51.871Z,26.50
2018-09-19T09:54:20.593Z,26.50
2018-09-19T09:56:49.337Z,26.50
2018-09-19T09:59:18.027Z,26.70
2018-09-19T10:01:46.810Z,26.10
2018-09-19T10:04:15.505Z,26.40
2018-09-19T10:06:44.230Z,26.40
2018-09-19T10:09:12.918Z,26.60
2018-09-19T10:11:41.653Z,26.80
2018-09-19T10:14:10.403Z,27.30
2018-09-19T10:16:39.120Z,27.20
2018-09-19T10:19:07.817Z,27.40
2018-09-19T10:21:36.610Z,28.20
2018-09-19T10:24:05.327Z,28.10
2018-09-19T10:26:34.058Z,27.90
2018-09-19T10:29:02.811Z,27.80
2018-09-19T10:31:31.649Z,27.00
2018-09-19T10:34:00.361Z,26.80
2018-09-19T10:36:29.077Z,26.60
2018-09-19T10:38:57.771Z,26.40
2018-09-19T10:41:26.605Z,26.20
2018-09-19T10:43:55.314Z,25.80
2018-09-19T10:46:24.009Z,25.50
2018-09-19T10:48:52.749Z,25.80
2018-09-19T10:51:21.446Z,25.60
2018-09-19T10:53:50.190Z,25.90
2018-09-19T10:56:18.886Z,26.20
2018-09-19T10:58:47.608Z,26.60
2018-09-19T11:01:16.342Z,26.30
2018-09-19T11:03:45.058Z,26.70
2018-09-19T11:06:14.526Z,26.30
2018-09-19T11:08:43.249Z,26.90
2018-09-19T11:11:11.988Z,27.60
2018-09-19T11:13:40.709Z,27.80
2018-09-19T11:16:09.442Z,27.80
2018-09-19T11:18:38.190Z,27.20
2018-09-19T11:21:06.895Z,27.00
2018-09-19T11:23:35.779Z,27.50
2018-09-19T11:26:04.550Z,27.90
2018-09-19T11:28:33.276Z,27.90
2018-09-19T11:31:02.005Z,27.70
2018-09-19T11:33:30.766Z,27.50
2018-09-19T11:35:59.501Z,27.60
2018-09-19T11:38:28.217Z,27.80
2018-09-19T11:40:56.917Z,27.80
2018-09-19T11:43:25.678Z,28.00
2018-09-19T11:45:54.370Z,27.30
2018-09-19T11:48:23.155Z,27.00
2018-09-19T11:50:51.840Z,27.00
2018-09-19T11:53:27.060Z,27.20
2018-09-19T11:55:56.601Z,27.80
2018-09-19T11:58:25.342Z,28.00
2018-09-19T12:00:54.048Z,28.00
2018-09-19T12:03:22.774Z,27.70
2018-09-19T12:05:51.506Z,27.90
2018-09-19T12:08:20.925Z,27.90
2018-09-19T12:10:49.694Z,28.00
2018-09-19T12:13:18.377Z,27.40
2018-09-19T12:15:47.111Z,27.70
2018-09-19T12:18:15.782Z,27.90
2018-09-19T12:20:44.573Z,27.50
2018-09-19T12:23:13.265Z,27.40
2018-09-19T12:25:41.999Z,27.80
2018-09-19T12:28:10.698Z,27.80
2018-09-19T12:30:39.425Z,27.90
2018-09-19T12:33:08.173Z,27.80
2018-09-19T12:35:36.896Z,28.00
2018-09-19T12:38:05.696Z,28.10
2018-09-19T12:40:34.534Z,28.10
2018-09-19T12:43:03.234Z,28.30
2018-09-19T12:45:32.103Z,28.20
2018-09-19T12:48:00.817Z,27.60
2018-09-19T12:50:29.552Z,27.70
2018-09-19T12:52:58.254Z,27.70
2018-09-19T12:55:26.951Z,27.90
2018-09-19T12:57:55.687Z,28.00
2018-09-19T13:00:24.457Z,28.10
2018-09-19T13:02:53.251Z,27.80
2018-09-19T13:05:21.961Z,28.10
2018-09-19T13:07:50.695Z,28.40
2018-09-19T13:10:19.397Z,28.10
2018-09-19T13:12:48.169Z,27.90
2018-09-19T13:15:16.874Z,27.90
2018-09-19T13:17:45.664Z,27.80
2018-09-19T13:20:14.373Z,27.90
2018-09-19T13:22:43.085Z,28.10
2018-09-19T13:25:11.770Z,28.20
2018-09-19T13:27:40.485Z,28.50
2018-09-19T13:30:09.213Z,28.20
2018-09-19T13:32:37.934Z,27.80
2018-09-19T13:35:06.773Z,27.70
2018-09-19T13:37:35.661Z,28.20
2018-09-19T13:40:04.652Z,28.30
2018-09-19T13:42:33.462Z,27.90
2018-09-19T13:45:02.170Z,27.90
2018-09-19T13:47:30.959Z,27.80
2018-09-19T13:50:15.306Z,28.20
2018-09-19T13:52:44.130Z,28.30
2018-09-19T13:55:13.048Z,28.10
2018-09-19T13:57:41.898Z,28.30
2018-09-19T14:00:10.793Z,28.30
2018-09-19T14:02:39.642Z,27.90
2018-09-19T14:05:08.454Z,28.00
2018-09-19T14:07:37.198Z,28.00
2018-09-19T14:10:06.078Z,27.90
2018-09-19T14:12:34.835Z,28.00
2018-09-19T14:15:03.626Z,28.30
2018-09-19T14:17:32.447Z,28.10
2018-09-19T14:20:01.276Z,27.80
2018-09-19T14:22:30.014Z,27.80
2018-09-19T14:24:58.846Z,27.80
2018-09-19T14:27:27.586Z,27.90
2018-09-19T14:29:56.418Z,28.00
2018-09-19T14:32:25.187Z,27.90
2018-09-19T14:34:53.945Z,28.10
2018-09-19T14:37:22.653Z,28.00
2018-09-19T14:39:51.366Z,28.00
2018-09-19T14:42:20.139Z,27.90
2018-09-19T14:44:49.030Z,27.60
2018-09-19T14:47:17.838Z,27.80
2018-09-19T14:49:46.690Z,27.80
2018-09-19T14:52:15.505Z,27.70
2018-09-19T14:54:44.441Z,27.80
2018-09-19T14:57:13.274Z,27.90
2018-09-19T14:59:42.198Z,27.80
2018-09-19T15:02:11.159Z,27.80
2018-09-19T15:04:39.989Z,27.90
2018-09-19T15:07:08.838Z,27.80
2018-09-19T15:09:37.658Z,27.70
2018-09-19T15:12:06.398Z,27.90
2018-09-19T15:14:35.250Z,27.80
2018-09-19T15:17:04.106Z,27.70
2018-09-19T15:19:32.943Z,27.70
2018-09-19T15:22:01.679Z,27.50
2018-09-19T15:24:30.474Z,27.40
2018-09-19T15:26:59.297Z,27.40
2018-09-19T15:29:27.993Z,27.50
2018-09-19T15:31:56.743Z,27.50
2018-09-19T15:34:25.480Z,27.40
2018-09-19T15:36:54.210Z,27.60
2018-09-19T15:39:23.201Z,27.60
2018-09-19T15:41:51.950Z,27.60
2018-09-19T15:44:20.673Z,27.30
2018-09-19T15:46:50.282Z,27.10
2018-09-19T15:49:18.981Z,27.00
2018-09-19T15:51:47.758Z,26.80
2018-09-19T15:54:16.593Z,27.10
2018-09-19T15:56:45.377Z,27.00
2018-09-19T15:59:14.185Z,27.00
2018-09-19T16:01:43.122Z,27.00
2018-09-19T16:04:12.000Z,27.00
2018-09-19T16:06:40.938Z,26.90
2018-09-19T16:09:11.361Z,26.90
2018-09-19T16:11:40.506Z,27.00
2018-09-19T16:14:09.794Z,26.90
2018-09-19T16:16:38.622Z,26.90
2018-09-19T16:19:07.419Z,26.90
2018-09-19T16:21:36.210Z,26.60
2018-09-19T16:24:04.939Z,26.60
2018-09-19T16:26:33.942Z,26.70
2018-09-19T16:29:02.667Z,26.60
2018-09-19T16:31:31.463Z,26.60
2018-09-19T16:34:00.302Z,26.60
2018-09-19T16:36:29.054Z,26.60
2018-09-19T16:38:57.877Z,26.30
2018-09-19T16:41:26.643Z,26.40
2018-09-19T16:43:55.397Z,26.30
2018-09-19T16:46:24.201Z,26.80
2018-09-19T16:48:52.965Z,26.40
2018-09-19T16:51:21.690Z,26.30
2018-09-19T16:53:50.454Z,26.10
2018-09-19T16:56:19.140Z,26.10
2018-09-19T16:58:47.983Z,26.10
2018-09-19T17:01:16.788Z,26.10
2018-09-19T17:03:45.648Z,26.20
2018-09-19T17:06:14.443Z,26.20
2018-09-19T17:08:43.262Z,25.80
2018-09-19T17:11:12.086Z,25.70
2018-09-19T17:13:40.949Z,25.70
2018-09-19T17:16:09.902Z,25.60
2018-09-19T17:18:38.701Z,25.70
2018-09-19T17:21:07.430Z,26.00
2018-09-19T17:23:36.174Z,26.30
2018-09-19T17:26:04.903Z,25.90
2018-09-19T17:28:33.949Z,26.00
2018-09-19T17:31:02.661Z,26.00
2018-09-19T17:33:31.517Z,25.40
2018-09-19T17:36:00.342Z,25.60
2018-09-19T17:38:29.198Z,25.10
2018-09-19T17:40:57.881Z,25.00
2018-09-19T17:43:26.661Z,25.40
2018-09-19T17:45:55.395Z,25.90
2018-09-19T17:48:24.143Z,25.90
2018-09-19T17:50:52.838Z,26.10
2018-09-19T17:53:21.553Z,25.30
2018-09-19T17:55:50.266Z,25.80
2018-09-19T17:58:19.036Z,25.60
2018-09-19T18:00:47.932Z,25.70
2018-09-19T18:03:16.818Z,25.50
2018-09-19T18:05:45.645Z,25.90
2018-09-19T18:08:14.497Z,25.70
2018-09-19T18:10:43.430Z,26.10
2018-09-19T18:13:12.309Z,26.00
2018-09-19T18:15:41.828Z,25.40
2018-09-19T18:18:10.853Z,25.50
2018-09-19T18:20:39.826Z,24.70
2018-09-19T18:23:08.635Z,25.00
2018-09-19T18:25:37.398Z,25.50
2018-09-19T18:28:06.203Z,25.70
2018-09-19T18:30:34.985Z,25.70
2018-09-19T18:33:04.061Z,25.20
2018-09-19T18:35:32.830Z,25.10
2018-09-19T18:38:01.562Z,23.90
2018-09-19T18:40:30.334Z,24.50
2018-09-19T18:42:59.030Z,24.40
2018-09-19T18:45:27.886Z,24.00
2018-09-19T18:47:56.602Z,24.70
2018-09-19T18:50:25.290Z,25.00
2018-09-19T18:52:54.046Z,24.60
2018-09-19T18:55:22.814Z,24.90
2018-09-19T18:57:51.579Z,24.60
2018-09-19T19:00:20.403Z,24.50
2018-09-19T19:02:49.177Z,24.50
2018-09-19T19:05:17.910Z,24.70
2018-09-19T19:07:46.813Z,24.70
2018-09-19T19:10:15.632Z,25.00
2018-09-19T19:12:44.553Z,24.50
2018-09-19T19:15:13.306Z,25.10
2018-09-19T19:17:42.174Z,25.30
2018-09-19T19:20:10.990Z,25.40
2018-09-19T19:22:39.858Z,25.20
2018-09-19T19:25:08.731Z,25.00
2018-09-19T19:27:37.704Z,25.00
2018-09-19T19:30:06.748Z,25.00
2018-09-19T19:32:35.878Z,25.20
2018-09-19T19:35:04.894Z,25.10
2018-09-19T19:37:33.778Z,24.70
2018-09-19T19:40:03.371Z,24.50
2018-09-19T19:42:32.126Z,24.50
2018-09-19T19:45:00.921Z,24.90
2018-09-19T19:47:29.681Z,25.00
2018-09-19T19:49:58.457Z,25.10
2018-09-19T19:52:27.222Z,25.20
2018-09-19T19:54:55.938Z,25.20
2018-09-19T19:57:24.674Z,25.20
2018-09-19T19:59:53.442Z,25.10
2018-09-19T20:02:22.234Z,25.00
2018-09-19T20:04:51.359Z,25.00
2018-09-19T20:07:20.177Z,25.00
2018-09-19T20:09:49.021Z,24.90
2018-09-19T20:12:17.853Z,24.80
2018-09-19T20:14:46.582Z,24.80
2018-09-19T20:17:15.378Z,24.70
2018-09-19T20:19:44.488Z,24.50
2018-09-19T20:22:13.310Z,24.50
2018-09-19T20:24:42.104Z,24.60
2018-09-19T20:27:10.871Z,24.50
2018-09-19T20:29:39.762Z,24.40
2018-09-19T20:32:08.680Z,24.50
2018-09-19T20:34:37.570Z,24.40
2018-09-19T20:37:06.730Z,24.50
2018-09-19T20:39:36.411Z,24.30
2018-09-19T20:42:05.175Z,24.30
2018-09-19T20:44:34.009Z,24.40
2018-09-19T20:47:02.798Z,24.10
2018-09-19T20:49:31.546Z,24.20
2018-09-19T20:52:00.278Z,24.20
2018-09-19T20:54:29.022Z,23.80
2018-09-19T20:56:57.754Z,24.00
2018-09-19T20:59:26.466Z,24.00
2018-09-19T21:01:55.218Z,24.00
2018-09-19T21:04:24.001Z,23.80
2018-09-19T21:06:52.757Z,23.10
2018-09-19T21:09:21.454Z,23.20
2018-09-19T21:11:50.173Z,23.40
2018-09-19T21:14:18.899Z,23.10
2018-09-19T21:16:47.662Z,23.50
2018-09-19T21:19:16.362Z,23.90
2018-09-19T21:21:45.188Z,24.10
2018-09-19T21:24:13.973Z,24.30
2018-09-19T21:26:42.776Z,24.40
2018-09-19T21:29:11.506Z,24.40
2018-09-19T21:31:40.330Z,24.50
2018-09-19T21:34:09.080Z,24.50
2018-09-19T21:36:38.027Z,24.60
2018-09-19T21:39:09.261Z,24.70
2018-09-19T21:41:38.536Z,24.70
2018-09-19T21:44:07.461Z,24.70
2018-09-19T21:46:36.370Z,24.80
2018-09-19T21:49:05.293Z,24.70
2018-09-19T21:51:34.107Z,24.50
2018-09-19T21:54:02.819Z,24.70
2018-09-19T21:56:31.598Z,24.50
2018-09-19T21:59:00.327Z,24.70
2018-09-19T22:01:34.401Z,24.70
2018-09-19T22:04:03.118Z,24.10
2018-09-19T22:06:31.886Z,24.40
2018-09-19T22:09:00.607Z,24.60
2018-09-19T22:11:29.369Z,24.60
2018-09-19T22:13:58.058Z,24.70
2018-09-19T22:16:26.766Z,24.00
2018-09-19T22:18:55.498Z,24.10
2018-09-19T22:21:24.290Z,24.50
2018-09-19T22:23:53.055Z,24.20
2018-09-19T22:26:21.772Z,24.50
2018-09-19T22:28:50.501Z,24.70
2018-09-19T22:31:19.185Z,24.80
2018-09-19T22:33:47.946Z,24.30
2018-09-19T22:36:16.665Z,24.60
2018-09-19T22:38:45.474Z,24.70
2018-09-19T22:41:14.261Z,24.50
2018-09-19T22:43:43.079Z,24.40
2018-09-19T22:46:12.072Z,24.70
2018-09-19T22:48:40.910Z,24.60
2018-09-19T22:51:09.768Z,23.30
2018-09-19T22:53:38.745Z,22.60
2018-09-19T22:56:07.643Z,22.80
2018-09-19T22:58:36.849Z,23.50
2018-09-19T23:01:05.802Z,24.10
2018-09-19T23:03:34.598Z,24.20
2018-09-19T23:06:03.359Z,24.20
2018-09-19T23:08:32.130Z,24.50
2018-09-19T23:11:00.858Z,24.60
2018-09-19T23:13:29.646Z,24.70
2018-09-19T23:15:58.343Z,24.70
2018-09-19T23:18:27.043Z,24.00
2018-09-19T23:20:55.786Z,24.20
2018-09-19T23:23:24.509Z,24.40
2018-09-19T23:25:53.267Z,24.50
2018-09-19T23:28:21.973Z,24.70
2018-09-19T23:30:50.727Z,24.70
2018-09-19T23:33:19.422Z,24.70
2018-09-19T23:35:48.190Z,24.70
2018-09-19T23:38:16.914Z,24.70
2018-09-19T23:40:45.656Z,24.60
2018-09-19T23:43:14.410Z,24.60
2018-09-19T23:45:43.249Z,24.30
2018-09-19T23:48:12.153Z,24.50
2018-09-19T23:50:41.060Z,24.60
2018-09-19T23:53:09.942Z,24.70
2018-09-19T23:55:38.889Z,24.60
2018-09-19T23:58:08.028Z,24.60
